Time;durP1;ratioP1;P1;durP2;ratioP2;P2;SDS_P1;SDS_P2;PMS_P1;PMS_P2;Temp;Humidity;BMP_temperature;BMP_pressure;BME280_temperature;BME280_humidity;BME280_pressure;Samples;Min_cycle;Max_cycle;Signal;HPM_P1;HPM_P2
2022/11/06 00:00:15;;;;;;;38.00;34.60;;;5.90;99.90;;;;;;4972078;28;20453;-83
2022/11/06 00:02:43;;;;;;;40.60;35.77;;;5.90;99.90;;;;;;4972037;28;20459;-81
2022/11/06 00:07:54;;;;;;;43.60;39.43;;;5.80;99.90;;;;;;4971265;28;20483;-78
2022/11/06 00:10:21;;;;;;;42.30;38.50;;;5.80;99.90;;;;;;4971186;28;20450;-77
2022/11/06 00:12:48;;;;;;;41.70;37.80;;;5.80;99.90;;;;;;4971147;28;20460;-79
2022/11/06 00:15:15;;;;;;;43.70;39.30;;;5.70;99.90;;;;;;4970695;28;20462;-80
2022/11/06 00:17:43;;;;;;;41.63;37.73;;;5.70;99.90;;;;;;4970828;28;20890;-78
2022/11/06 00:20:10;;;;;;;45.30;40.60;;;5.70;99.90;;;;;;4970602;28;20450;-80
2022/11/06 00:22:38;;;;;;;45.17;40.90;;;5.70;99.90;;;;;;4970685;28;20455;-79
2022/11/06 00:25:06;;;;;;;44.53;40.07;;;5.70;99.90;;;;;;4970814;28;20841;-79
2022/11/06 00:27:36;;;;;;;43.97;40.07;;;5.70;99.90;;;;;;4971100;28;20552;-79
2022/11/06 00:30:03;;;;;;;44.17;39.87;;;5.80;99.90;;;;;;4971859;28;20750;-80
2022/11/06 00:32:29;;;;;;;44.20;39.50;;;5.70;99.90;;;;;;4973282;28;21061;-80
2022/11/06 00:34:58;;;;;;;41.43;37.50;;;5.60;99.90;;;;;;4974713;28;20476;-80
2022/11/06 00:37:24;;;;;;;44.83;40.70;;;5.70;99.90;;;;;;4971743;28;20465;-81
2022/11/06 00:39:51;;;;;;;42.90;38.83;;;5.70;99.90;;;;;;4971601;28;20971;-80
2022/11/06 00:42:18;;;;;;;44.13;40.23;;;5.60;99.90;;;;;;4972369;28;20961;-80
2022/11/06 00:44:45;;;;;;;42.40;38.30;;;5.70;99.90;;;;;;4974762;28;20443;-80
2022/11/06 00:47:11;;;;;;;44.30;40.10;;;5.60;99.90;;;;;;4971937;28;20954;-80
2022/11/06 00:49:38;;;;;;;43.50;39.33;;;5.60;99.90;;;;;;4991116;28;20470;-87
2022/11/06 00:57:45;;;;;;;43.00;39.10;;;5.50;99.90;;;;;;5299499;23;20570;-87
2022/11/06 01:00:58;;;;;;;42.97;38.93;;;5.50;99.90;;;;;;4969292;28;20482;-89
2022/11/06 01:03:54;;;;;;;43.30;39.40;;;5.40;99.90;;;;;;4950444;28;20452;-84
2022/11/06 01:06:29;;;;;;;44.57;40.47;;;5.40;99.90;;;;;;4916190;28;20569;-83
2022/11/06 01:08:57;;;;;;;41.87;38.47;;;4.90;99.90;;;;;;4968520;28;20480;-83
2022/11/06 01:11:43;;;;;;;40.97;37.30;;;5.50;99.90;;;;;;4965344;28;20501;-85
2022/11/06 01:14:15;;;;;;;42.60;38.73;;;5.30;99.90;;;;;;4961333;28;20525;-86
2022/11/06 01:16:42;;;;;;;45.73;41.50;;;;;;;;;;4952553;28;20453;-85
2022/11/06 01:19:11;;;;;;;44.53;40.33;;;5.30;99.90;;;;;;4951571;28;20458;-85
2022/11/06 01:21:55;;;;;;;45.73;41.63;;;5.30;99.90;;;;;;4951569;28;20480;-87
2022/11/06 02:41:29;;;;;;;;;;;;;;;;;;;;;
2022/11/06 02:44:00;;;;;;;41.50;37.70;;;4.90;99.90;;;;;;4949677;28;20453;-83
2022/11/06 02:46:32;;;;;;;45.33;41.03;;;5.30;99.90;;;;;;4953001;28;20532;-84
2022/11/06 02:49:03;;;;;;;44.63;40.50;;;4.90;99.90;;;;;;4952968;28;20449;-85
2022/11/06 02:51:31;;;;;;;45.17;40.60;;;4.90;99.90;;;;;;4952932;28;20518;-84
2022/11/06 02:54:03;;;;;;;45.90;41.97;;;4.90;99.90;;;;;;4952730;28;20976;-83
2022/11/06 02:56:36;;;;;;;46.03;41.73;;;4.90;99.90;;;;;;4952860;28;20484;-83
2022/11/06 02:59:06;;;;;;;45.47;41.00;;;4.90;99.90;;;;;;4953018;28;20867;-83
2022/11/06 03:01:37;;;;;;;41.13;37.33;;;4.90;99.90;;;;;;4952979;28;20449;-83
2022/11/06 03:04:11;;;;;;;42.73;38.73;;;4.80;99.90;;;;;;4953072;28;20866;-84
2022/11/06 03:06:40;;;;;;;42.40;38.30;;;4.80;99.90;;;;;;4953161;28;20487;-84
2022/11/06 03:09:12;;;;;;;41.77;38.23;;;4.80;99.90;;;;;;4952385;28;20455;-85
2022/11/06 03:11:40;;;;;;;39.33;36.13;;;4.80;99.90;;;;;;4952889;28;20477;-85
2022/11/06 03:14:11;;;;;;;40.70;37.20;;;4.70;99.90;;;;;;4952969;28;20459;-89
2022/11/06 03:16:50;;;;;;;39.23;36.03;;;4.60;99.90;;;;;;4956993;28;20455;-91
2022/11/06 03:19:26;;;;;;;39.70;36.20;;;4.60;99.90;;;;;;4962569;28;20481;-91
2022/11/06 03:22:01;;;;;;;37.73;34.63;;;4.60;99.90;;;;;;4965560;28;20480;-90
2022/11/06 03:24:33;;;;;;;41.80;37.80;;;4.50;99.90;;;;;;4956100;28;20475;-90
2022/11/06 03:40:20;;;;;;;37.23;33.77;;;4.20;99.90;;;;;;4859340;29;20503;-86
2022/11/06 03:43:06;;;;;;;39.37;35.70;;;5.90;99.90;;;;;;4935639;29;21112;-84
2022/11/06 03:45:41;;;;;;;42.60;38.37;;;4.20;99.90;;;;;;4951546;28;20448;-86
2022/11/06 03:48:19;;;;;;;38.83;35.57;;;6.80;99.90;;;;;;4951911;28;20448;-85
2022/11/06 03:50:51;;;;;;;45.67;37.20;;;4.30;99.90;;;;;;4951531;28;20459;-85
2022/11/06 03:53:24;;;;;;;42.27;38.07;;;4.50;99.90;;;;;;4951952;28;20544;-84
2022/11/06 03:55:55;;;;;;;40.67;36.97;;;4.00;99.90;;;;;;4951955;28;20641;-84
2022/11/06 03:58:27;;;;;;;39.37;36.00;;;4.10;99.90;;;;;;4952155;28;20445;-85
2022/11/06 04:00:57;;;;;;;37.60;34.33;;;4.00;99.90;;;;;;4951861;28;20458;-86
2022/11/06 04:03:28;;;;;;;39.73;36.33;;;4.00;99.90;;;;;;4951630;28;20463;-86
2022/11/06 04:06:00;;;;;;;41.97;38.27;;;3.90;99.90;;;;;;4951620;28;20476;-84
2022/11/06 04:14:06;;;;;;;41.83;37.50;;;4.00;99.90;;;;;;4955248;29;20815;-89
2022/11/06 04:16:36;;;;;;;42.00;37.73;;;3.90;99.90;;;;;;4952360;28;20973;-88
2022/11/06 04:19:02;;;;;;;39.83;36.23;;;3.90;99.90;;;;;;4951861;28;20486;-89
2022/11/06 04:21:43;;;;;;;42.47;38.17;;;3.90;99.90;;;;;;4951136;28;20453;-88
2022/11/06 04:27:20;;;;;;;40.63;35.33;;;3.80;99.90;;;;;;4951231;29;20483;-84
2022/11/06 04:30:02;;;;;;;40.43;36.90;;;3.80;99.90;;;;;;4950376;28;20476;-83
2022/11/06 04:32:40;;;;;;;39.87;35.37;;;3.80;99.90;;;;;;4950413;28;20456;-84
2022/11/06 04:35:15;;;;;;;40.60;37.00;;;3.80;99.90;;;;;;4950621;28;20446;-82
2022/11/06 04:37:50;;;;;;;43.47;39.47;;;3.80;99.90;;;;;;4951038;28;20913;-83
2022/11/06 04:40:23;;;;;;;42.37;38.07;;;3.80;99.90;;;;;;4950129;28;21212;-84
2022/11/06 04:42:56;;;;;;;48.23;38.57;;;3.80;99.90;;;;;;4950589;28;20449;-84
2022/11/06 04:45:27;;;;;;;44.83;39.07;;;3.80;99.90;;;;;;4950777;28;20819;-86
2022/11/06 04:47:55;;;;;;;40.60;37.00;;;3.80;99.90;;;;;;4950235;28;20579;-84
2022/11/06 04:50:25;;;;;;;42.57;38.47;;;3.80;99.90;;;;;;4950489;28;20796;-84
2022/11/06 04:52:52;;;;;;;43.00;39.00;;;3.80;99.90;;;;;;4950386;28;20448;-84
2022/11/06 04:55:20;;;;;;;40.70;37.43;;;3.80;99.90;;;;;;4950519;28;20461;-83
2022/11/06 04:57:47;;;;;;;40.27;36.90;;;3.70;99.90;;;;;;4950492;28;20455;-85
2022/11/06 05:00:15;;;;;;;40.87;37.47;;;3.70;99.90;;;;;;4950228;28;20460;-83
2022/11/06 05:02:43;;;;;;;43.50;39.20;;;3.70;99.90;;;;;;4950685;28;20449;-83
2022/11/06 05:05:10;;;;;;;42.00;37.83;;;3.70;99.90;;;;;;4950517;28;20463;-79
2022/11/06 05:07:37;;;;;;;41.53;37.67;;;3.70;99.90;;;;;;4950487;28;20939;-84
2022/11/06 05:10:04;;;;;;;40.30;36.73;;;3.70;99.90;;;;;;4949993;28;20955;-73
2022/11/06 05:31:20;;;;;;;38.37;34.87;;;3.50;99.90;;;;;;5916401;23;20634;-74
2022/11/06 05:33:47;;;;;;;39.73;36.40;;;3.40;99.90;;;;;;4952803;28;20917;-74
2022/11/06 05:36:14;;;;;;;39.13;35.83;;;3.50;99.90;;;;;;4953591;28;20444;-76
2022/11/06 05:38:40;;;;;;;39.67;36.33;;;3.50;99.90;;;;;;4953724;28;20445;-75
2022/11/06 05:41:07;;;;;;;40.87;36.57;;;3.40;99.90;;;;;;4954086;28;20450;-75
2022/11/06 05:43:34;;;;;;;41.40;37.63;;;3.40;99.90;;;;;;4953829;28;20452;-76
2022/11/06 05:46:01;;;;;;;39.93;36.43;;;3.30;99.90;;;;;;4953484;28;20467;-74
2022/11/06 05:48:29;;;;;;;36.43;33.23;;;3.30;99.90;;;;;;4953480;28;20798;-74
2022/11/06 05:51:00;;;;;;;38.30;35.00;;;3.20;99.90;;;;;;4953398;28;20460;-74
2022/11/06 05:53:27;;;;;;;37.10;34.10;;;3.10;99.90;;;;;;4953142;28;20952;-75
2022/11/06 05:55:53;;;;;;;38.73;35.33;;;3.10;99.90;;;;;;4953304;28;20447;-74
2022/11/06 05:58:20;;;;;;;39.00;34.90;;;3.00;99.90;;;;;;4953365;28;20635;-73
2022/11/06 06:00:47;;;;;;;35.93;33.13;;;3.00;99.90;;;;;;4952904;28;20455;-74
2022/11/06 06:03:14;;;;;;;34.87;32.00;;;3.00;99.90;;;;;;4953376;28;20558;-74
2022/11/06 06:05:43;;;;;;;36.63;33.60;;;3.00;99.90;;;;;;4953195;28;20452;-74
2022/11/06 06:08:09;;;;;;;37.70;34.50;;;3.00;99.90;;;;;;4953333;28;20484;-75
2022/11/06 06:10:40;;;;;;;34.50;31.90;;;3.00;99.90;;;;;;4953886;28;20941;-73
2022/11/06 06:13:07;;;;;;;35.83;32.83;;;2.90;99.90;;;;;;4953621;28;20516;-74
2022/11/06 06:15:34;;;;;;;38.90;35.47;;;2.90;99.90;;;;;;4953473;28;20859;-75
2022/11/06 06:18:01;;;;;;;36.90;34.10;;;3.00;99.90;;;;;;4953176;28;20440;-73
2022/11/06 06:20:27;;;;;;;38.83;35.30;;;2.90;99.90;;;;;;4953029;28;20918;-73
2022/11/06 06:22:56;;;;;;;36.87;33.63;;;2.90;99.90;;;;;;4952990;28;20455;-74
2022/11/06 06:25:24;;;;;;;38.30;35.10;;;2.90;99.90;;;;;;4952944;28;20460;-74
2022/11/06 06:27:51;;;;;;;37.17;34.13;;;3.00;99.90;;;;;;4953119;28;20494;-74
2022/11/06 06:30:18;;;;;;;36.67;33.60;;;3.00;99.90;;;;;;4953003;28;20482;-74
2022/11/06 06:32:45;;;;;;;34.50;31.67;;;3.00;99.90;;;;;;4952643;28;20489;-74
2022/11/06 06:35:11;;;;;;;37.77;34.33;;;3.00;99.90;;;;;;4952796;28;20452;-75
2022/11/06 06:37:38;;;;;;;39.33;35.63;;;2.90;99.90;;;;;;4953138;28;20449;-74
2022/11/06 06:40:07;;;;;;;33.70;30.87;;;2.90;99.90;;;;;;4952905;28;20445;-75
2022/11/06 06:42:34;;;;;;;37.73;34.30;;;2.90;99.90;;;;;;4952709;28;20467;-74
2022/11/06 06:45:01;;;;;;;37.90;34.70;;;2.90;99.90;;;;;;4951883;28;20459;-74
2022/11/06 06:47:28;;;;;;;35.90;33.10;;;2.90;99.90;;;;;;4952632;28;20522;-74
2022/11/06 06:49:54;;;;;;;39.30;35.93;;;3.00;99.90;;;;;;4952970;28;20480;-75
2022/11/06 06:52:21;;;;;;;37.07;34.07;;;3.10;99.90;;;;;;4952746;28;20467;-74
2022/11/06 06:54:48;;;;;;;37.17;33.80;;;3.00;99.90;;;;;;4952370;28;20460;-74
2022/11/06 06:57:16;;;;;;;37.03;34.17;;;3.10;99.90;;;;;;4952296;28;20710;-74
2022/11/06 06:59:43;;;;;;;37.80;34.57;;;3.10;99.90;;;;;;4952352;28;20540;-74
2022/11/06 07:02:10;;;;;;;36.37;33.50;;;3.00;99.90;;;;;;4952334;28;20456;-75
2022/11/06 07:04:37;;;;;;;36.90;33.97;;;3.00;99.90;;;;;;4952586;28;20455;-75
2022/11/06 07:07:03;;;;;;;36.57;33.87;;;3.10;99.90;;;;;;4952217;28;20496;-75
2022/11/06 07:09:31;;;;;;;37.57;34.57;;;3.20;99.90;;;;;;4952102;28;20460;-74
2022/11/06 07:11:58;;;;;;;37.30;33.90;;;3.20;99.90;;;;;;4952025;28;20465;-74
2022/11/06 07:14:26;;;;;;;37.73;34.63;;;3.30;99.90;;;;;;4952224;28;20463;-72
2022/11/06 07:16:53;;;;;;;35.90;33.07;;;3.30;99.90;;;;;;4952694;28;21001;-73
2022/11/06 07:19:19;;;;;;;40.50;36.60;;;3.20;99.90;;;;;;4952391;28;20457;-72
2022/11/06 07:21:46;;;;;;;38.47;35.30;;;3.20;99.90;;;;;;4951845;28;20488;-73
2022/11/06 07:24:13;;;;;;;37.93;34.87;;;3.30;99.90;;;;;;4951766;28;20453;-74
2022/11/06 07:26:39;;;;;;;35.63;33.07;;;3.20;99.90;;;;;;4951758;28;20481;-75
2022/11/06 07:29:06;;;;;;;36.73;33.60;;;3.20;99.90;;;;;;4952116;28;20456;-75
2022/11/06 07:31:34;;;;;;;29.40;27.50;;;3.30;99.90;;;;;;4951400;28;20488;-75
2022/11/06 07:34:01;;;;;;;35.13;32.27;;;3.30;99.90;;;;;;4951570;28;20809;-75
2022/11/06 07:36:29;;;;;;;35.33;32.43;;;3.20;99.90;;;;;;4951606;28;20444;-76
2022/11/06 07:38:57;;;;;;;33.20;30.80;;;3.20;99.90;;;;;;4951428;28;20547;-76
2022/11/06 07:41:24;;;;;;;31.53;29.23;;;3.20;99.90;;;;;;4951514;28;20455;-75
2022/11/06 07:43:51;;;;;;;33.77;31.23;;;3.20;99.90;;;;;;4951612;28;20455;-76
2022/11/06 07:46:17;;;;;;;32.20;29.93;;;3.20;99.90;;;;;;4951383;28;20456;-75
2022/11/06 07:48:45;;;;;;;31.93;29.13;;;3.20;99.90;;;;;;4951221;28;20490;-75
2022/11/06 07:51:12;;;;;;;35.20;32.17;;;3.20;99.90;;;;;;4951111;28;20979;-75
2022/11/06 07:53:40;;;;;;;34.90;32.03;;;3.20;99.90;;;;;;4951233;28;20552;-76
2022/11/06 07:56:08;;;;;;;32.77;30.20;;;3.30;99.90;;;;;;4951227;28;20452;-75
2022/11/06 07:58:35;;;;;;;36.73;33.50;;;3.30;99.90;;;;;;4951296;28;20819;-75
2022/11/06 08:01:02;;;;;;;33.23;30.10;;;3.40;99.90;;;;;;4950809;28;20452;-75
2022/11/06 08:03:29;;;;;;;35.73;31.83;;;3.40;99.90;;;;;;4950649;28;20449;-76
2022/11/06 08:05:58;;;;;;;33.80;31.23;;;3.50;99.90;;;;;;4950830;28;20456;-75
2022/11/06 08:08:25;;;;;;;33.07;29.67;;;3.50;99.90;;;;;;4950741;28;20507;-75
2022/11/06 08:10:52;;;;;;;35.33;31.87;;;3.60;99.90;;;;;;4951074;28;20453;-75
2022/11/06 08:13:19;;;;;;;34.87;31.77;;;3.60;99.90;;;;;;4950763;28;20514;-76
2022/11/06 08:15:46;;;;;;;33.10;30.00;;;3.70;99.90;;;;;;4950509;28;20767;-75
2022/11/06 08:18:13;;;;;;;34.73;31.53;;;3.80;99.90;;;;;;4950630;28;20448;-75
2022/11/06 08:20:40;;;;;;;34.90;31.90;;;3.80;99.90;;;;;;4950561;28;20456;-77
2022/11/06 08:23:11;;;;;;;34.50;31.60;;;3.80;99.90;;;;;;4950698;28;20462;-75
2022/11/06 08:29:16;;;;;;;31.80;29.10;;;3.80;99.90;;;;;;5083423;28;20634;-81
2022/11/06 08:31:43;;;;;;;32.93;30.23;;;4.00;99.90;;;;;;5085529;28;20817;-82
2022/11/06 08:34:10;;;;;;;33.50;30.47;;;4.10;99.90;;;;;;5086229;28;20944;-83
2022/11/06 08:36:38;;;;;;;33.80;30.80;;;4.20;99.90;;;;;;5084249;28;20447;-83
2022/11/06 08:39:05;;;;;;;30.90;28.07;;;4.30;99.90;;;;;;5084595;28;20452;-84
2022/11/06 08:41:32;;;;;;;33.23;30.23;;;4.40;99.90;;;;;;5085219;28;20441;-83
2022/11/06 08:44:00;;;;;;;30.40;27.73;;;4.60;99.90;;;;;;5085459;28;21075;-83
2022/11/06 08:46:28;;;;;;;34.63;31.43;;;4.70;99.90;;;;;;5085420;28;20443;-83
2022/11/06 08:48:54;;;;;;;34.23;30.83;;;4.90;99.90;;;;;;5084885;28;20507;-85
2022/11/06 08:51:21;;;;;;;32.50;29.30;;;5.00;99.90;;;;;;5085867;28;20445;-86
2022/11/06 08:53:48;;;;;;;36.50;32.87;;;5.30;99.90;;;;;;5085290;28;20439;-84
2022/11/06 08:56:14;;;;;;;33.33;30.10;;;5.90;99.90;;;;;;5084903;28;20766;-83
2022/11/06 08:58:41;;;;;;;32.83;29.67;;;6.80;99.90;;;;;;5085170;28;20454;-83
2022/11/06 09:01:08;;;;;;;27.17;24.97;;;7.60;99.90;;;;;;5084826;28;20806;-84
2022/11/06 09:03:36;;;;;;;25.03;23.10;;;8.30;99.90;;;;;;5085092;28;20457;-83
2022/11/06 09:06:05;;;;;;;20.90;19.30;;;9.00;99.90;;;;;;5085208;28;20602;-82
2022/11/06 09:08:32;;;;;;;21.30;19.70;;;9.30;99.90;;;;;;5084895;28;20504;-82
2022/11/06 09:10:59;;;;;;;19.80;18.57;;;9.40;99.90;;;;;;5084849;28;20766;-82
2022/11/06 09:13:26;;;;;;;19.93;18.50;;;9.60;99.90;;;;;;5084252;28;20557;-81
2022/11/06 09:15:52;;;;;;;19.60;18.20;;;9.90;99.90;;;;;;5084587;28;21000;-79
2022/11/06 09:18:19;;;;;;;19.80;18.40;;;10.30;99.90;;;;;;5082759;28;20442;-79
2022/11/06 09:20:47;;;;;;;21.60;20.10;;;10.70;99.90;;;;;;5084129;28;20457;-79
2022/11/06 09:23:14;;;;;;;20.10;18.70;;;10.50;99.90;;;;;;5084586;28;20726;-78
2022/11/06 09:25:41;;;;;;;18.83;17.53;;;10.60;99.90;;;;;;5084424;28;20924;-79
2022/11/06 09:28:07;;;;;;;20.30;18.87;;;10.50;99.90;;;;;;5084460;28;20497;-78
2022/11/06 09:30:34;;;;;;;18.07;16.80;;;11.00;99.90;;;;;;5084401;28;20474;-77
2022/11/06 09:33:02;;;;;;;18.83;17.63;;;11.60;99.90;;;;;;5084116;28;20454;-78
2022/11/06 09:35:31;;;;;;;18.50;17.20;;;12.20;99.90;;;;;;5084074;28;20791;-79
2022/11/06 09:38:02;;;;;;;18.30;17.20;;;13.50;99.90;;;;;;5084174;28;20548;-79
2022/11/06 09:40:33;;;;;;;18.47;17.27;;;14.80;99.90;;;;;;5070968;28;20451;-78
2022/11/06 09:43:19;;;;;;;16.80;15.90;;;16.50;99.90;;;;;;5070816;28;20542;-77
2022/11/06 09:45:48;;;;;;;18.57;17.53;;;16.50;98.00;;;;;;5069433;28;20478;-78
2022/11/06 09:48:21;;;;;;;19.63;18.33;;;16.00;97.80;;;;;;5070258;28;21039;-77
2022/11/06 09:50:51;;;;;;;17.90;16.80;;;15.90;97.60;;;;;;5070604;28;20458;-77
2022/11/06 09:53:27;;;;;;;18.70;17.50;;;15.30;98.70;;;;;;5070845;28;20439;-77
2022/11/06 09:55:56;;;;;;;18.07;17.07;;;15.30;99.90;;;;;;5070841;28;21181;-78
2022/11/06 09:58:28;;;;;;;18.80;17.70;;;16.20;99.00;;;;;;5070407;28;20951;-77
2022/11/06 10:00:55;;;;;;;17.73;16.57;;;16.80;98.70;;;;;;5069934;28;20451;-78
2022/11/06 10:03:28;;;;;;;17.47;16.27;;;17.80;95.50;;;;;;5070307;28;20443;-77
2022/11/06 10:05:54;;;;;;;19.73;18.43;;;18.40;93.50;;;;;;5070688;28;20452;-77
2022/11/06 10:08:25;;;;;;;19.20;18.10;;;18.60;93.50;;;;;;5070898;28;20486;-76
2022/11/06 10:11:02;;;;;;;19.17;18.07;;;17.90;92.00;;;;;;5071004;28;20532;-77
2022/11/06 10:13:50;;;;;;;18.30;17.20;;;16.40;94.50;;;;;;5070395;28;20451;-76
2022/11/06 10:16:29;;;;;;;19.10;17.60;;;15.30;97.50;;;;;;5068930;28;20443;-75
2022/11/06 10:19:05;;;;;;;18.67;17.67;;;14.20;99.90;;;;;;5069817;28;20441;-75
2022/11/06 10:21:45;;;;;;;19.70;18.30;;;13.40;99.90;;;;;;5068517;28;20455;-76
2022/11/06 10:24:20;;;;;;;18.67;17.47;;;13.20;99.90;;;;;;5066471;28;20455;-76
2022/11/06 10:26:52;;;;;;;18.63;17.43;;;13.20;99.90;;;;;;5069494;28;21141;-76
2022/11/06 10:29:45;;;;;;;18.37;16.70;;;13.50;99.90;;;;;;5070220;28;20509;-78
2022/11/06 10:32:30;;;;;;;17.87;16.67;;;13.70;99.90;;;;;;5067571;28;20867;-79
2022/11/06 10:35:02;;;;;;;16.70;15.60;;;13.50;99.90;;;;;;5070434;28;20447;-77
2022/11/06 10:37:32;;;;;;;16.07;15.13;;;13.50;99.90;;;;;;5070125;28;20802;-78
2022/11/06 10:40:05;;;;;;;16.70;15.70;;;13.50;99.90;;;;;;5069836;28;20443;-74
2022/11/06 10:42:36;;;;;;;17.13;16.13;;;13.30;99.90;;;;;;5070066;28;20458;-76
2022/11/06 10:45:05;;;;;;;16.43;15.43;;;13.10;99.90;;;;;;5068830;28;20948;-76
2022/11/06 10:47:36;;;;;;;17.27;16.27;;;13.20;99.90;;;;;;5049919;28;20440;-76
2022/11/06 10:50:07;;;;;;;16.13;15.23;;;13.60;99.90;;;;;;5049884;28;20808;-76
2022/11/06 10:52:51;;;;;;;17.77;16.60;;;13.80;99.90;;;;;;5049443;28;20456;-76
2022/11/06 10:55:58;;;;;;;16.60;15.60;;;13.50;99.90;;;;;;5049618;28;20459;-76
2022/11/06 10:58:28;;;;;;;16.90;15.90;;;13.90;99.90;;;;;;5061017;28;20827;-76
2022/11/06 11:00:59;;;;;;;15.37;14.47;;;13.60;99.90;;;;;;5068504;28;20488;-76
2022/11/06 11:03:30;;;;;;;16.70;15.57;;;13.20;99.90;;;;;;5057716;28;20443;-76
2022/11/06 11:05:56;;;;;;;14.37;13.47;;;13.60;99.90;;;;;;5049197;28;20440;-77
2022/11/06 11:08:39;;;;;;;15.83;14.87;;;13.30;99.90;;;;;;5049415;28;20506;-77
2022/11/06 11:11:18;;;;;;;15.30;14.33;;;13.00;99.90;;;;;;5049283;28;20455;-77
2022/11/06 11:13:47;;;;;;;15.77;14.77;;;12.60;99.90;;;;;;5049081;28;20451;-77
2022/11/06 11:16:17;;;;;;;14.67;13.87;;;12.30;99.90;;;;;;5048721;28;20440;-76
2022/11/06 11:18:44;;;;;;;15.80;14.80;;;12.10;99.90;;;;;;5049040;28;20590;-76
2022/11/06 11:21:22;;;;;;;14.43;13.63;;;12.20;99.90;;;;;;5048447;28;20452;-76
2022/11/06 11:24:07;;;;;;;14.03;13.23;;;12.40;99.90;;;;;;5049243;28;20455;-76
2022/11/06 11:26:38;;;;;;;14.30;13.50;;;12.60;99.90;;;;;;5049143;28;20677;-76
2022/11/06 11:29:15;;;;;;;14.47;13.57;;;12.70;99.90;;;;;;5048799;28;20872;-76
2022/11/06 11:31:47;;;;;;;14.00;13.20;;;12.90;99.90;;;;;;5048655;28;20563;-76
2022/11/06 11:34:18;;;;;;;13.53;12.63;;;13.00;99.90;;;;;;5048654;28;20444;-75
2022/11/06 11:36:51;;;;;;;14.40;13.50;;;13.50;99.90;;;;;;5048710;28;20455;-76
2022/11/06 11:39:20;;;;;;;15.00;14.20;;;14.10;99.90;;;;;;5048814;28;20447;-77
2022/11/06 11:41:48;;;;;;;14.23;13.43;;;14.70;99.90;;;;;;5048571;28;20448;-77
2022/11/06 11:44:16;;;;;;;14.70;14.00;;;15.70;99.90;;;;;;5048606;28;20459;-77
2022/11/06 11:46:48;;;;;;;15.43;14.53;;;15.90;99.90;;;;;;5048940;28;20965;-77
2022/11/06 11:49:33;;;;;;;14.70;13.90;;;16.10;98.20;;;;;;5048741;28;20487;-77
2022/11/06 11:52:02;;;;;;;14.83;13.93;;;16.80;97.10;;;;;;5048128;28;20957;-77
2022/11/06 11:54:33;;;;;;;13.87;13.13;;;16.60;96.70;;;;;;5048448;28;20526;-76
2022/11/06 11:57:04;;;;;;;14.87;14.07;;;16.30;97.70;;;;;;5048129;28;20809;-76
2022/11/06 11:59:36;;;;;;;15.27;14.47;;;15.90;98.40;;;;;;5048663;28;20658;-76
2022/11/06 12:02:13;;;;;;;14.53;13.73;;;15.70;99.20;;;;;;5047714;28;20532;-77
2022/11/06 12:04:43;;;;;;;14.27;13.50;;;16.70;98.80;;;;;;5048304;28;20440;-77
2022/11/06 12:07:24;;;;;;;15.70;14.77;;;17.00;96.30;;;;;;5048280;28;20443;-76
2022/11/06 12:09:51;;;;;;;15.33;14.53;;;17.00;96.80;;;;;;5063724;28;20486;-77
2022/11/06 12:12:25;;;;;;;16.20;15.40;;;17.80;96.10;;;;;;5068365;28;20447;-76
2022/11/06 12:15:06;;;;;;;14.47;13.67;;;17.70;95.70;;;;;;5068396;28;20546;-76
2022/11/06 12:17:37;;;;;;;15.90;15.00;;;18.10;95.00;;;;;;5068562;28;20451;-78
2022/11/06 12:20:10;;;;;;;14.83;14.13;;;18.30;94.60;;;;;;5067769;28;20444;-79
2022/11/06 12:22:43;;;;;;;15.77;14.87;;;18.50;94.30;;;;;;5064466;28;20470;-79
2022/11/06 12:25:14;;;;;;;15.23;14.43;;;18.90;93.20;;;;;;5063604;28;20475;-79
2022/11/06 12:27:46;;;;;;;15.37;14.67;;;19.20;92.40;;;;;;5055769;28;20892;-80
2022/11/06 12:30:16;;;;;;;15.43;14.57;;;19.20;92.20;;;;;;5053933;28;20756;-79
2022/11/06 12:32:58;;;;;;;14.90;14.10;;;17.90;93.50;;;;;;5056730;28;20443;-79
2022/11/06 12:35:28;;;;;;;16.27;15.27;;;17.70;94.40;;;;;;5056407;28;20439;-78
2022/11/06 12:38:02;;;;;;;15.50;14.67;;;17.90;94.20;;;;;;5057626;28;20447;-78
2022/11/06 12:40:30;;;;;;;14.30;13.50;;;17.20;94.90;;;;;;5057132;28;20450;-78
2022/11/06 12:43:06;;;;;;;15.83;15.03;;;16.10;96.80;;;;;;5051125;28;20778;-77
2022/11/06 12:45:57;;;;;;;15.27;14.33;;;15.60;99.00;;;;;;5045612;28;20535;-78
2022/11/06 12:48:39;;;;;;;13.57;12.87;;;15.60;99.30;;;;;;5052154;28;20529;-77
2022/11/06 12:51:11;;;;;;;14.00;13.40;;;15.70;98.90;;;;;;5055679;28;20455;-77
2022/11/06 12:53:49;;;;;;;13.30;12.60;;;15.10;99.50;;;;;;5054357;28;20886;-76
2022/11/06 12:56:22;;;;;;;13.60;12.90;;;15.00;99.90;;;;;;5046189;28;20444;-78
2022/11/06 12:59:05;;;;;;;12.13;11.63;;;14.70;99.90;;;;;;5046370;28;20839;-77
2022/11/06 13:01:44;;;;;;;12.77;12.27;;;14.20;99.90;;;;;;5056304;28;20440;-78
2022/11/06 13:04:28;;;;;;;12.10;11.60;;;13.90;99.90;;;;;;5056073;28;20451;-77
2022/11/06 13:07:22;;;;;;;12.50;12.00;;;13.70;99.90;;;;;;5056665;28;20432;-77
2022/11/06 13:09:58;;;;;;;12.37;11.87;;;13.50;99.90;;;;;;5055875;28;20834;-76
2022/11/06 13:12:33;;;;;;;12.43;11.90;;;13.30;99.90;;;;;;5055834;28;20459;-77
2022/11/06 13:15:11;;;;;;;12.50;12.00;;;13.30;99.90;;;;;;5057050;28;20758;-77
2022/11/06 13:17:46;;;;;;;12.20;11.60;;;13.30;99.90;;;;;;5059371;28;20435;-77
2022/11/06 13:20:21;;;;;;;12.67;12.17;;;13.30;99.90;;;;;;5060208;28;20442;-77
2022/11/06 13:22:55;;;;;;;13.13;12.40;;;13.30;99.90;;;;;;5056308;28;20435;-77
2022/11/06 13:25:27;;;;;;;11.70;11.20;;;13.30;99.90;;;;;;5051785;28;20440;-77
2022/11/06 13:28:01;;;;;;;12.13;11.63;;;13.30;99.90;;;;;;5051048;28;20476;-77
2022/11/06 13:30:31;;;;;;;13.00;12.40;;;13.30;99.90;;;;;;5051189;28;20488;-77
2022/11/06 13:33:08;;;;;;;11.93;11.43;;;13.20;99.90;;;;;;5051344;28;20463;-78
2022/11/06 13:35:39;;;;;;;11.97;11.47;;;13.20;99.90;;;;;;5051559;28;20595;-77
2022/11/06 13:38:08;;;;;;;12.40;11.90;;;13.00;99.90;;;;;;5051463;28;20452;-77
2022/11/06 13:40:39;;;;;;;12.23;11.73;;;12.90;99.90;;;;;;5051593;28;20451;-77
2022/11/06 13:43:12;;;;;;;12.17;11.17;;;12.80;99.90;;;;;;5051366;28;20440;-76
2022/11/06 13:45:48;;;;;;;13.17;12.57;;;12.70;99.90;;;;;;5051160;28;20456;-77
2022/11/06 13:48:32;;;;;;;12.90;12.30;;;12.70;99.90;;;;;;5060014;28;20467;-77
2022/11/06 13:51:03;;;;;;;13.10;12.50;;;12.70;99.90;;;;;;5060018;28;20432;-77
2022/11/06 13:53:39;;;;;;;12.30;11.70;;;12.60;99.90;;;;;;5058519;28;20435;-77
2022/11/06 13:56:21;;;;;;;12.77;12.23;;;12.70;99.90;;;;;;5058617;28;20439;-77
2022/11/06 13:59:32;;;;;;;12.90;12.40;;;12.70;99.90;;;;;;5060017;28;20438;-77
2022/11/06 14:02:15;;;;;;;12.97;12.47;;;12.70;99.90;;;;;;5049249;28;20969;-77
2022/11/06 14:05:11;;;;;;;12.60;12.00;;;12.60;99.90;;;;;;5053744;28;20439;-75
2022/11/06 14:07:41;;;;;;;12.70;12.20;;;12.80;99.90;;;;;;5048895;28;20451;-76
2022/11/06 14:10:18;;;;;;;12.30;11.60;;;12.70;99.90;;;;;;5057202;28;20483;-76
2022/11/06 14:12:46;;;;;;;11.30;10.80;;;12.70;99.90;;;;;;5058266;28;20439;-76
2022/11/06 14:15:21;;;;;;;11.77;11.27;;;12.70;99.90;;;;;;5049359;28;20498;-77
2022/11/06 14:17:57;;;;;;;12.03;11.53;;;12.60;99.90;;;;;;5050439;28;20455;-76
2022/11/06 14:20:31;;;;;;;11.53;10.93;;;12.60;99.90;;;;;;5050768;28;20443;-76
2022/11/06 14:23:31;;;;;;;11.40;10.93;;;12.50;99.90;;;;;;5050125;28;20463;-76
2022/11/06 14:26:02;;;;;;;12.50;11.90;;;12.40;99.90;;;;;;5049660;28;20444;-75
2022/11/06 14:28:31;;;;;;;12.43;11.83;;;12.50;99.90;;;;;;5049698;28;20816;-75
2022/11/06 14:30:58;;;;;;;13.40;12.60;;;12.40;99.90;;;;;;5059106;28;20485;-74
2022/11/06 14:34:01;;;;;;;12.57;11.97;;;12.50;99.90;;;;;;5069705;28;20447;-75
2022/11/06 14:36:34;;;;;;;13.73;13.03;;;12.50;99.90;;;;;;5049957;28;20730;-75
2022/11/06 14:39:02;;;;;;;12.57;11.90;;;12.50;99.90;;;;;;5050227;28;20956;-76
2022/11/06 14:41:54;;;;;;;12.97;12.47;;;12.30;99.90;;;;;;5049093;28;20807;-76
2022/11/06 14:44:26;;;;;;;13.17;12.50;;;12.10;99.90;;;;;;5049396;28;20451;-76
2022/11/06 14:46:56;;;;;;;12.87;12.27;;;12.10;99.90;;;;;;5049817;28;20791;-77
2022/11/06 14:49:30;;;;;;;12.97;12.27;;;11.90;99.90;;;;;;5049656;28;20480;-75
2022/11/06 14:52:01;;;;;;;13.10;12.40;;;11.80;99.90;;;;;;5048961;28;20444;-75
2022/11/06 14:54:29;;;;;;;12.47;11.97;;;11.80;99.90;;;;;;5049663;28;21026;-76
2022/11/06 14:56:55;;;;;;;12.80;12.20;;;11.80;99.90;;;;;;5049653;28;20452;-75
2022/11/06 14:59:31;;;;;;;12.90;12.30;;;11.70;99.90;;;;;;5049151;28;20956;-75
2022/11/06 15:02:04;;;;;;;13.60;12.90;;;11.50;99.90;;;;;;5049519;28;20448;-75
2022/11/06 15:04:33;;;;;;;14.43;13.73;;;11.50;99.90;;;;;;5049393;28;20523;-75